sensor_id;sensor_type;location;lat;lon;timestamp;temperature;humidity
59505;DHT22;45321;53.200;5.814;2023-06-22T00:00:58;20.70;77.60
59505;DHT22;45321;53.200;5.814;2023-06-22T00:03:25;20.70;77.70
59505;DHT22;45321;53.200;5.814;2023-06-22T00:05:52;20.70;77.40
59505;DHT22;45321;53.200;5.814;2023-06-22T00:08:19;20.60;77.50
59505;DHT22;45321;53.200;5.814;2023-06-22T00:10:45;20.70;77.70
59505;DHT22;45321;53.200;5.814;2023-06-22T00:13:12;20.60;77.80
59505;DHT22;45321;53.200;5.814;2023-06-22T00:15:39;20.60;77.70
59505;DHT22;45321;53.200;5.814;2023-06-22T00:18:06;20.60;77.70
59505;DHT22;45321;53.200;5.814;2023-06-22T00:20:32;20.50;77.60
59505;DHT22;45321;53.200;5.814;2023-06-22T00:23:00;20.60;77.80
59505;DHT22;45321;53.200;5.814;2023-06-22T00:25:26;20.50;77.90
59505;DHT22;45321;53.200;5.814;2023-06-22T00:27:52;20.50;78.00
59505;DHT22;45321;53.200;5.814;2023-06-22T00:30:18;20.40;77.70
59505;DHT22;45321;53.200;5.814;2023-06-22T00:32:44;20.40;77.70
59505;DHT22;45321;53.200;5.814;2023-06-22T00:35:12;20.40;78.00
59505;DHT22;45321;53.200;5.814;2023-06-22T00:37:38;20.40;78.10
59505;DHT22;45321;53.200;5.814;2023-06-22T00:40:09;20.40;78.20
59505;DHT22;45321;53.200;5.814;2023-06-22T00:42:40;20.30;78.30
59505;DHT22;45321;53.200;5.814;2023-06-22T00:45:07;20.30;78.50
59505;DHT22;45321;53.200;5.814;2023-06-22T00:47:34;20.30;78.30
59505;DHT22;45321;53.200;5.814;2023-06-22T00:50:01;20.30;78.50
59505;DHT22;45321;53.200;5.814;2023-06-22T00:52:29;20.30;78.50
59505;DHT22;45321;53.200;5.814;2023-06-22T00:54:57;20.30;78.60
59505;DHT22;45321;53.200;5.814;2023-06-22T00:57:24;20.30;78.60
59505;DHT22;45321;53.200;5.814;2023-06-22T00:59:54;20.20;78.50
59505;DHT22;45321;53.200;5.814;2023-06-22T01:02:20;20.20;78.50
59505;DHT22;45321;53.200;5.814;2023-06-22T01:04:46;20.20;78.40
59505;DHT22;45321;53.200;5.814;2023-06-22T01:07:37;20.10;78.30
59505;DHT22;45321;53.200;5.814;2023-06-22T01:10:32;20.10;78.40
59505;DHT22;45321;53.200;5.814;2023-06-22T01:13:02;20.00;78.50
59505;DHT22;45321;53.200;5.814;2023-06-22T01:18:30;19.80;78.30
59505;DHT22;45321;53.200;5.814;2023-06-22T01:20:57;19.70;78.40
59505;DHT22;45321;53.200;5.814;2023-06-22T01:28:41;19.50;78.20
59505;DHT22;45321;53.200;5.814;2023-06-22T01:31:09;19.50;78.40
59505;DHT22;45321;53.200;5.814;2023-06-22T01:33:40;19.50;78.50
59505;DHT22;45321;53.200;5.814;2023-06-22T01:36:07;19.50;78.80
59505;DHT22;45321;53.200;5.814;2023-06-22T01:38:33;19.50;78.70
59505;DHT22;45321;53.200;5.814;2023-06-22T01:41:00;19.50;79.00
59505;DHT22;45321;53.200;5.814;2023-06-22T01:43:28;19.40;79.10
59505;DHT22;45321;53.200;5.814;2023-06-22T01:45:55;19.40;79.00
59505;DHT22;45321;53.200;5.814;2023-06-22T01:48:22;19.40;79.00
59505;DHT22;45321;53.200;5.814;2023-06-22T01:50:48;19.40;79.00
59505;DHT22;45321;53.200;5.814;2023-06-22T01:53:14;19.40;79.00
59505;DHT22;45321;53.200;5.814;2023-06-22T01:55:40;19.30;78.90
59505;DHT22;45321;53.200;5.814;2023-06-22T01:58:06;19.30;79.20
59505;DHT22;45321;53.200;5.814;2023-06-22T02:00:34;19.30;79.20
59505;DHT22;45321;53.200;5.814;2023-06-22T02:03:14;19.20;79.40
59505;DHT22;45321;53.200;5.814;2023-06-22T02:05:49;19.30;79.50
59505;DHT22;45321;53.200;5.814;2023-06-22T02:08:31;19.20;79.50
59505;DHT22;45321;53.200;5.814;2023-06-22T02:10:58;19.20;79.50
59505;DHT22;45321;53.200;5.814;2023-06-22T02:13:25;19.20;79.70
59505;DHT22;45321;53.200;5.814;2023-06-22T02:15:51;19.20;79.60
59505;DHT22;45321;53.200;5.814;2023-06-22T02:18:17;19.20;79.70
59505;DHT22;45321;53.200;5.814;2023-06-22T02:20:43;19.20;79.70
59505;DHT22;45321;53.200;5.814;2023-06-22T02:23:09;19.20;79.60
59505;DHT22;45321;53.200;5.814;2023-06-22T02:25:35;19.10;79.80
59505;DHT22;45321;53.200;5.814;2023-06-22T02:28:01;19.10;79.70
59505;DHT22;45321;53.200;5.814;2023-06-22T02:30:27;19.10;80.00
59505;DHT22;45321;53.200;5.814;2023-06-22T02:32:53;19.00;80.00
59505;DHT22;45321;53.200;5.814;2023-06-22T02:35:28;19.00;80.10
59505;DHT22;45321;53.200;5.814;2023-06-22T02:38:00;18.90;80.00
59505;DHT22;45321;53.200;5.814;2023-06-22T02:40:27;18.90;80.10
59505;DHT22;45321;53.200;5.814;2023-06-22T02:42:53;18.80;80.10
59505;DHT22;45321;53.200;5.814;2023-06-22T02:45:19;18.80;80.10
59505;DHT22;45321;53.200;5.814;2023-06-22T02:47:45;18.80;80.10
59505;DHT22;45321;53.200;5.814;2023-06-22T02:50:10;18.80;80.30
59505;DHT22;45321;53.200;5.814;2023-06-22T02:52:36;18.70;80.20
59505;DHT22;45321;53.200;5.814;2023-06-22T02:55:02;18.70;80.30
59505;DHT22;45321;53.200;5.814;2023-06-22T02:57:28;18.70;80.30
59505;DHT22;45321;53.200;5.814;2023-06-22T02:59:55;18.70;80.40
59505;DHT22;45321;53.200;5.814;2023-06-22T03:02:20;18.70;80.30
59505;DHT22;45321;53.200;5.814;2023-06-22T03:04:47;18.70;80.30
59505;DHT22;45321;53.200;5.814;2023-06-22T03:07:15;18.70;80.20
59505;DHT22;45321;53.200;5.814;2023-06-22T03:09:40;18.70;80.20
59505;DHT22;45321;53.200;5.814;2023-06-22T03:12:08;18.60;80.20
59505;DHT22;45321;53.200;5.814;2023-06-22T03:14:34;18.60;80.30
59505;DHT22;45321;53.200;5.814;2023-06-22T03:16:59;18.60;80.20
59505;DHT22;45321;53.200;5.814;2023-06-22T03:19:29;18.60;80.20
59505;DHT22;45321;53.200;5.814;2023-06-22T03:22:00;18.50;80.10
59505;DHT22;45321;53.200;5.814;2023-06-22T03:24:25;18.50;80.20
59505;DHT22;45321;53.200;5.814;2023-06-22T03:26:54;18.40;80.10
59505;DHT22;45321;53.200;5.814;2023-06-22T03:29:20;18.40;80.10
59505;DHT22;45321;53.200;5.814;2023-06-22T03:31:46;18.40;80.10
59505;DHT22;45321;53.200;5.814;2023-06-22T03:34:12;18.40;80.20
59505;DHT22;45321;53.200;5.814;2023-06-22T03:36:37;18.40;80.30
59505;DHT22;45321;53.200;5.814;2023-06-22T03:39:03;18.30;80.30
59505;DHT22;45321;53.200;5.814;2023-06-22T03:41:29;18.30;80.40
59505;DHT22;45321;53.200;5.814;2023-06-22T03:43:55;18.20;80.60
59505;DHT22;45321;53.200;5.814;2023-06-22T03:46:20;18.20;80.50
59505;DHT22;45321;53.200;5.814;2023-06-22T03:48:46;18.20;80.50
59505;DHT22;45321;53.200;5.814;2023-06-22T03:51:12;18.20;80.70
59505;DHT22;45321;53.200;5.814;2023-06-22T03:53:37;18.20;80.70
59505;DHT22;45321;53.200;5.814;2023-06-22T03:56:03;18.20;80.70
59505;DHT22;45321;53.200;5.814;2023-06-22T03:58:29;18.20;80.70
59505;DHT22;45321;53.200;5.814;2023-06-22T04:00:58;18.20;80.60
59505;DHT22;45321;53.200;5.814;2023-06-22T04:03:25;18.20;80.70
59505;DHT22;45321;53.200;5.814;2023-06-22T04:05:51;18.20;80.80
59505;DHT22;45321;53.200;5.814;2023-06-22T04:08:17;18.20;80.90
59505;DHT22;45321;53.200;5.814;2023-06-22T04:10:43;18.20;80.70
59505;DHT22;45321;53.200;5.814;2023-06-22T04:13:09;18.20;80.70
59505;DHT22;45321;53.200;5.814;2023-06-22T04:15:35;18.20;81.00
59505;DHT22;45321;53.200;5.814;2023-06-22T04:18:00;18.20;81.00
59505;DHT22;45321;53.200;5.814;2023-06-22T04:20:26;18.20;80.90
59505;DHT22;45321;53.200;5.814;2023-06-22T04:22:53;18.20;81.10
59505;DHT22;45321;53.200;5.814;2023-06-22T04:25:19;18.20;81.20
59505;DHT22;45321;53.200;5.814;2023-06-22T04:27:45;18.20;81.20
59505;DHT22;45321;53.200;5.814;2023-06-22T04:30:11;18.20;81.30
59505;DHT22;45321;53.200;5.814;2023-06-22T04:32:37;18.20;81.60
59505;DHT22;45321;53.200;5.814;2023-06-22T04:35:04;18.20;81.60
59505;DHT22;45321;53.200;5.814;2023-06-22T04:37:30;18.20;81.20
59505;DHT22;45321;53.200;5.814;2023-06-22T04:39:56;18.20;81.30
59505;DHT22;45321;53.200;5.814;2023-06-22T04:42:22;18.20;81.50
59505;DHT22;45321;53.200;5.814;2023-06-22T04:44:48;18.20;81.50
59505;DHT22;45321;53.200;5.814;2023-06-22T04:47:13;18.20;81.50
59505;DHT22;45321;53.200;5.814;2023-06-22T04:49:39;18.30;81.60
59505;DHT22;45321;53.200;5.814;2023-06-22T04:52:10;18.30;81.70
59505;DHT22;45321;53.200;5.814;2023-06-22T04:54:38;18.30;82.10
59505;DHT22;45321;53.200;5.814;2023-06-22T04:57:05;18.30;82.00
59505;DHT22;45321;53.200;5.814;2023-06-22T04:59:36;18.30;82.10
59505;DHT22;45321;53.200;5.814;2023-06-22T05:02:02;18.40;82.10
59505;DHT22;45321;53.200;5.814;2023-06-22T05:04:29;18.40;82.10
59505;DHT22;45321;53.200;5.814;2023-06-22T05:06:59;18.40;82.20
59505;DHT22;45321;53.200;5.814;2023-06-22T05:09:28;18.50;82.40
59505;DHT22;45321;53.200;5.814;2023-06-22T05:11:55;18.40;82.20
59505;DHT22;45321;53.200;5.814;2023-06-22T05:14:25;18.50;82.30
59505;DHT22;45321;53.200;5.814;2023-06-22T05:16:50;18.50;82.30
59505;DHT22;45321;53.200;5.814;2023-06-22T05:19:17;18.60;82.40
59505;DHT22;45321;53.200;5.814;2023-06-22T05:21:43;18.60;82.50
59505;DHT22;45321;53.200;5.814;2023-06-22T05:24:09;18.60;82.50
59505;DHT22;45321;53.200;5.814;2023-06-22T05:26:35;18.60;82.60
59505;DHT22;45321;53.200;5.814;2023-06-22T05:29:02;18.60;82.60
59505;DHT22;45321;53.200;5.814;2023-06-22T05:31:28;18.70;82.60
59505;DHT22;45321;53.200;5.814;2023-06-22T05:33:55;18.70;82.80
59505;DHT22;45321;53.200;5.814;2023-06-22T05:36:21;18.70;82.90
59505;DHT22;45321;53.200;5.814;2023-06-22T05:38:51;18.80;82.90
59505;DHT22;45321;53.200;5.814;2023-06-22T05:41:16;18.80;83.00
59505;DHT22;45321;53.200;5.814;2023-06-22T05:43:42;18.90;82.90
59505;DHT22;45321;53.200;5.814;2023-06-22T05:46:08;18.90;82.90
59505;DHT22;45321;53.200;5.814;2023-06-22T05:48:34;19.00;83.00
59505;DHT22;45321;53.200;5.814;2023-06-22T05:50:59;19.00;82.90
59505;DHT22;45321;53.200;5.814;2023-06-22T05:53:25;19.10;83.00
59505;DHT22;45321;53.200;5.814;2023-06-22T05:55:51;19.20;83.00
59505;DHT22;45321;53.200;5.814;2023-06-22T05:58:17;19.20;82.80
59505;DHT22;45321;53.200;5.814;2023-06-22T06:00:43;19.20;82.70
59505;DHT22;45321;53.200;5.814;2023-06-22T06:03:09;19.30;82.60
59505;DHT22;45321;53.200;5.814;2023-06-22T06:05:36;19.30;82.90
59505;DHT22;45321;53.200;5.814;2023-06-22T06:08:03;19.40;82.80
59505;DHT22;45321;53.200;5.814;2023-06-22T06:10:33;19.50;82.70
59505;DHT22;45321;53.200;5.814;2023-06-22T06:13:00;19.50;82.80
59505;DHT22;45321;53.200;5.814;2023-06-22T06:15:30;19.50;82.80
59505;DHT22;45321;53.200;5.814;2023-06-22T06:17:56;19.60;82.80
59505;DHT22;45321;53.200;5.814;2023-06-22T06:20:23;19.70;82.60
59505;DHT22;45321;53.200;5.814;2023-06-22T06:22:50;19.70;82.60
59505;DHT22;45321;53.200;5.814;2023-06-22T06:25:16;19.80;82.60
59505;DHT22;45321;53.200;5.814;2023-06-22T06:27:46;19.80;82.40
59505;DHT22;45321;53.200;5.814;2023-06-22T06:30:12;19.80;82.00
59505;DHT22;45321;53.200;5.814;2023-06-22T06:32:39;19.90;81.70
59505;DHT22;45321;53.200;5.814;2023-06-22T06:35:09;20.00;81.30
59505;DHT22;45321;53.200;5.814;2023-06-22T06:37:36;20.00;81.20
59505;DHT22;45321;53.200;5.814;2023-06-22T06:40:06;20.10;81.00
59505;DHT22;45321;53.200;5.814;2023-06-22T06:42:39;20.10;80.70
59505;DHT22;45321;53.200;5.814;2023-06-22T06:45:06;20.20;80.60
59505;DHT22;45321;53.200;5.814;2023-06-22T06:47:32;20.20;80.50
59505;DHT22;45321;53.200;5.814;2023-06-22T06:50:02;20.20;80.30
59505;DHT22;45321;53.200;5.814;2023-06-22T06:52:27;20.30;80.50
59505;DHT22;45321;53.200;5.814;2023-06-22T06:54:54;20.40;80.50
59505;DHT22;45321;53.200;5.814;2023-06-22T06:57:20;20.50;80.30
59505;DHT22;45321;53.200;5.814;2023-06-22T06:59:46;20.60;80.10
59505;DHT22;45321;53.200;5.814;2023-06-22T07:02:12;20.60;79.70
59505;DHT22;45321;53.200;5.814;2023-06-22T07:04:37;20.70;79.70
59505;DHT22;45321;53.200;5.814;2023-06-22T07:07:03;20.70;79.80
59505;DHT22;45321;53.200;5.814;2023-06-22T07:09:29;20.80;79.80
59505;DHT22;45321;53.200;5.814;2023-06-22T07:11:55;20.80;79.10
59505;DHT22;45321;53.200;5.814;2023-06-22T07:14:20;20.90;79.40
59505;DHT22;45321;53.200;5.814;2023-06-22T07:16:46;21.00;79.10
59505;DHT22;45321;53.200;5.814;2023-06-22T07:19:13;21.20;79.10
59505;DHT22;45321;53.200;5.814;2023-06-22T07:21:38;21.20;78.60
59505;DHT22;45321;53.200;5.814;2023-06-22T07:24:07;21.30;78.20
59505;DHT22;45321;53.200;5.814;2023-06-22T07:26:33;21.30;78.10
59505;DHT22;45321;53.200;5.814;2023-06-22T07:28:59;21.50;78.10
59505;DHT22;45321;53.200;5.814;2023-06-22T07:31:25;21.70;77.80
59505;DHT22;45321;53.200;5.814;2023-06-22T07:33:51;21.70;77.90
59505;DHT22;45321;53.200;5.814;2023-06-22T07:36:18;21.80;77.30
59505;DHT22;45321;53.200;5.814;2023-06-22T07:38:44;21.90;77.20
59505;DHT22;45321;53.200;5.814;2023-06-22T07:41:09;22.00;76.50
59505;DHT22;45321;53.200;5.814;2023-06-22T07:43:35;22.10;76.60
59505;DHT22;45321;53.200;5.814;2023-06-22T07:46:05;22.20;75.60
59505;DHT22;45321;53.200;5.814;2023-06-22T07:48:31;22.20;76.10
59505;DHT22;45321;53.200;5.814;2023-06-22T07:50:57;22.30;75.70
59505;DHT22;45321;53.200;5.814;2023-06-22T07:53:23;22.40;75.00
59505;DHT22;45321;53.200;5.814;2023-06-22T07:55:49;22.50;75.30
59505;DHT22;45321;53.200;5.814;2023-06-22T07:58:15;22.60;74.00
59505;DHT22;45321;53.200;5.814;2023-06-22T08:00:41;22.70;74.30
59505;DHT22;45321;53.200;5.814;2023-06-22T08:03:07;22.70;73.60
59505;DHT22;45321;53.200;5.814;2023-06-22T08:05:33;22.70;74.00
59505;DHT22;45321;53.200;5.814;2023-06-22T08:07:58;22.70;73.60
59505;DHT22;45321;53.200;5.814;2023-06-22T08:10:24;22.70;73.80
59505;DHT22;45321;53.200;5.814;2023-06-22T08:12:51;22.70;74.10
59505;DHT22;45321;53.200;5.814;2023-06-22T08:15:18;22.70;74.10
59505;DHT22;45321;53.200;5.814;2023-06-22T08:17:44;22.70;73.90
59505;DHT22;45321;53.200;5.814;2023-06-22T08:20:13;22.80;74.00
59505;DHT22;45321;53.200;5.814;2023-06-22T08:22:43;22.80;74.40
59505;DHT22;45321;53.200;5.814;2023-06-22T08:25:10;22.90;73.70
59505;DHT22;45321;53.200;5.814;2023-06-22T08:27:36;22.90;72.80
59505;DHT22;45321;53.200;5.814;2023-06-22T08:30:02;22.80;72.80
59505;DHT22;45321;53.200;5.814;2023-06-22T08:32:28;22.90;73.20
59505;DHT22;45321;53.200;5.814;2023-06-22T08:34:55;22.90;73.10
59505;DHT22;45321;53.200;5.814;2023-06-22T08:37:21;22.90;72.70
59505;DHT22;45321;53.200;5.814;2023-06-22T08:39:50;23.00;73.10
59505;DHT22;45321;53.200;5.814;2023-06-22T08:42:16;23.00;72.50
59505;DHT22;45321;53.200;5.814;2023-06-22T08:44:42;23.10;73.10
59505;DHT22;45321;53.200;5.814;2023-06-22T08:47:08;23.20;72.80
59505;DHT22;45321;53.200;5.814;2023-06-22T08:49:33;23.20;71.20
59505;DHT22;45321;53.200;5.814;2023-06-22T08:51:59;23.20;72.00
59505;DHT22;45321;53.200;5.814;2023-06-22T08:54:25;23.30;72.30
59505;DHT22;45321;53.200;5.814;2023-06-22T08:56:51;23.40;70.90
59505;DHT22;45321;53.200;5.814;2023-06-22T08:59:16;23.40;70.20
59505;DHT22;45321;53.200;5.814;2023-06-22T09:01:42;23.40;70.90
59505;DHT22;45321;53.200;5.814;2023-06-22T09:04:11;23.50;70.70
59505;DHT22;45321;53.200;5.814;2023-06-22T09:06:37;23.60;70.50
59505;DHT22;45321;53.200;5.814;2023-06-22T09:09:12;23.60;70.60
59505;DHT22;45321;53.200;5.814;2023-06-22T09:11:38;23.70;69.00
59505;DHT22;45321;53.200;5.814;2023-06-22T09:14:03;23.70;69.50
59505;DHT22;45321;53.200;5.814;2023-06-22T09:16:30;23.80;68.40
59505;DHT22;45321;53.200;5.814;2023-06-22T09:18:57;23.90;67.90
59505;DHT22;45321;53.200;5.814;2023-06-22T09:21:23;23.90;69.20
59505;DHT22;45321;53.200;5.814;2023-06-22T09:23:49;24.00;69.10
59505;DHT22;45321;53.200;5.814;2023-06-22T09:26:20;24.00;68.00
59505;DHT22;45321;53.200;5.814;2023-06-22T09:28:46;24.10;68.20
59505;DHT22;45321;53.200;5.814;2023-06-22T09:31:12;24.10;67.30
59505;DHT22;45321;53.200;5.814;2023-06-22T09:33:40;24.20;67.90
59505;DHT22;45321;53.200;5.814;2023-06-22T09:36:06;24.20;65.90
59505;DHT22;45321;53.200;5.814;2023-06-22T09:38:38;24.20;67.00
59505;DHT22;45321;53.200;5.814;2023-06-22T09:41:05;24.20;67.10
59505;DHT22;45321;53.200;5.814;2023-06-22T09:43:32;24.30;67.20
59505;DHT22;45321;53.200;5.814;2023-06-22T09:45:57;24.40;66.50
59505;DHT22;45321;53.200;5.814;2023-06-22T09:48:24;24.50;67.70
59505;DHT22;45321;53.200;5.814;2023-06-22T09:50:49;24.50;68.00
59505;DHT22;45321;53.200;5.814;2023-06-22T09:53:15;24.60;67.10
59505;DHT22;45321;53.200;5.814;2023-06-22T09:55:41;24.70;66.30
59505;DHT22;45321;53.200;5.814;2023-06-22T09:58:06;24.70;66.30
59505;DHT22;45321;53.200;5.814;2023-06-22T10:00:32;24.70;64.50
59505;DHT22;45321;53.200;5.814;2023-06-22T10:02:58;24.70;64.50
59505;DHT22;45321;53.200;5.814;2023-06-22T10:05:24;24.80;66.60
59505;DHT22;45321;53.200;5.814;2023-06-22T10:07:50;24.90;65.80
59505;DHT22;45321;53.200;5.814;2023-06-22T10:10:16;24.90;64.90
59505;DHT22;45321;53.200;5.814;2023-06-22T10:12:54;25.00;64.00
59505;DHT22;45321;53.200;5.814;2023-06-22T10:15:21;25.10;63.10
59505;DHT22;45321;53.200;5.814;2023-06-22T10:17:47;25.20;63.50
59505;DHT22;45321;53.200;5.814;2023-06-22T10:20:13;25.30;62.80
59505;DHT22;45321;53.200;5.814;2023-06-22T10:22:40;25.50;63.40
59505;DHT22;45321;53.200;5.814;2023-06-22T10:25:07;25.50;62.40
59505;DHT22;45321;53.200;5.814;2023-06-22T10:27:33;25.60;61.70
59505;DHT22;45321;53.200;5.814;2023-06-22T10:29:59;25.60;62.20
59505;DHT22;45321;53.200;5.814;2023-06-22T10:32:25;25.70;61.50
59505;DHT22;45321;53.200;5.814;2023-06-22T10:34:50;25.70;61.90
59505;DHT22;45321;53.200;5.814;2023-06-22T10:37:16;25.90;61.70
59505;DHT22;45321;53.200;5.814;2023-06-22T10:39:42;26.00;63.10
59505;DHT22;45321;53.200;5.814;2023-06-22T10:42:08;26.10;60.60
59505;DHT22;45321;53.200;5.814;2023-06-22T10:44:34;26.10;60.70
59505;DHT22;45321;53.200;5.814;2023-06-22T10:46:59;26.20;61.00
59505;DHT22;45321;53.200;5.814;2023-06-22T10:49:25;26.30;60.90
59505;DHT22;45321;53.200;5.814;2023-06-22T10:51:51;26.30;60.20
59505;DHT22;45321;53.200;5.814;2023-06-22T10:54:17;26.40;58.70
59505;DHT22;45321;53.200;5.814;2023-06-22T10:56:44;26.40;59.20
59505;DHT22;45321;53.200;5.814;2023-06-22T10:59:10;26.50;58.20
59505;DHT22;45321;53.200;5.814;2023-06-22T11:01:36;26.50;58.90
59505;DHT22;45321;53.200;5.814;2023-06-22T11:04:03;26.50;56.40
59505;DHT22;45321;53.200;5.814;2023-06-22T11:06:29;26.60;58.30
59505;DHT22;45321;53.200;5.814;2023-06-22T11:08:54;26.60;58.00
59505;DHT22;45321;53.200;5.814;2023-06-22T11:11:20;26.60;58.60
59505;DHT22;45321;53.200;5.814;2023-06-22T11:13:46;26.60;57.70
59505;DHT22;45321;53.200;5.814;2023-06-22T11:16:12;26.70;57.40
59505;DHT22;45321;53.200;5.814;2023-06-22T11:18:37;26.70;57.30
59505;DHT22;45321;53.200;5.814;2023-06-22T11:21:03;26.70;57.10
59505;DHT22;45321;53.200;5.814;2023-06-22T11:23:29;26.70;57.90
59505;DHT22;45321;53.200;5.814;2023-06-22T11:25:55;26.70;58.70
59505;DHT22;45321;53.200;5.814;2023-06-22T11:28:21;26.70;59.50
59505;DHT22;45321;53.200;5.814;2023-06-22T11:30:47;26.70;58.60
59505;DHT22;45321;53.200;5.814;2023-06-22T11:33:12;26.70;59.30
59505;DHT22;45321;53.200;5.814;2023-06-22T11:35:39;26.60;59.50
59505;DHT22;45321;53.200;5.814;2023-06-22T11:38:05;26.60;59.80
59505;DHT22;45321;53.200;5.814;2023-06-22T11:40:31;26.60;58.80
59505;DHT22;45321;53.200;5.814;2023-06-22T11:42:56;26.60;60.10
59505;DHT22;45321;53.200;5.814;2023-06-22T11:45:22;26.70;58.60
59505;DHT22;45321;53.200;5.814;2023-06-22T11:47:48;26.80;58.10
59505;DHT22;45321;53.200;5.814;2023-06-22T11:50:14;26.80;58.30
59505;DHT22;45321;53.200;5.814;2023-06-22T11:52:40;26.90;59.40
59505;DHT22;45321;53.200;5.814;2023-06-22T11:55:06;27.00;57.40
59505;DHT22;45321;53.200;5.814;2023-06-22T11:57:38;27.10;57.80
59505;DHT22;45321;53.200;5.814;2023-06-22T12:00:17;27.10;56.40
59505;DHT22;45321;53.200;5.814;2023-06-22T12:02:44;27.10;56.90
59505;DHT22;45321;53.200;5.814;2023-06-22T12:05:10;27.20;57.50
59505;DHT22;45321;53.200;5.814;2023-06-22T12:07:36;27.30;57.20
59505;DHT22;45321;53.200;5.814;2023-06-22T12:10:03;27.30;56.40
59505;DHT22;45321;53.200;5.814;2023-06-22T12:12:29;27.40;56.60
59505;DHT22;45321;53.200;5.814;2023-06-22T12:14:54;27.40;56.10
59505;DHT22;45321;53.200;5.814;2023-06-22T12:17:20;27.40;55.70
59505;DHT22;45321;53.200;5.814;2023-06-22T12:19:46;27.30;53.70
59505;DHT22;45321;53.200;5.814;2023-06-22T12:22:12;27.20;54.70
59505;DHT22;45321;53.200;5.814;2023-06-22T12:24:37;27.20;54.00
59505;DHT22;45321;53.200;5.814;2023-06-22T12:27:03;27.10;53.20
59505;DHT22;45321;53.200;5.814;2023-06-22T12:29:29;27.10;54.20
59505;DHT22;45321;53.200;5.814;2023-06-22T12:31:55;26.90;53.80
59505;DHT22;45321;53.200;5.814;2023-06-22T12:34:21;26.90;54.50
59505;DHT22;45321;53.200;5.814;2023-06-22T12:36:47;26.90;53.90
59505;DHT22;45321;53.200;5.814;2023-06-22T12:39:15;26.80;53.00
59505;DHT22;45321;53.200;5.814;2023-06-22T12:41:40;26.80;53.60
59505;DHT22;45321;53.200;5.814;2023-06-22T12:44:06;26.80;53.70
59505;DHT22;45321;53.200;5.814;2023-06-22T12:46:32;26.70;52.90
59505;DHT22;45321;53.200;5.814;2023-06-22T12:49:06;26.70;53.90
59505;DHT22;45321;53.200;5.814;2023-06-22T12:51:32;26.70;54.60
59505;DHT22;45321;53.200;5.814;2023-06-22T12:53:59;26.70;52.80
59505;DHT22;45321;53.200;5.814;2023-06-22T12:56:25;26.60;52.40
59505;DHT22;45321;53.200;5.814;2023-06-22T12:58:51;26.50;53.10
59505;DHT22;45321;53.200;5.814;2023-06-22T13:01:16;26.40;53.70
59505;DHT22;45321;53.200;5.814;2023-06-22T13:03:43;26.40;53.60
59505;DHT22;45321;53.200;5.814;2023-06-22T13:06:09;26.40;53.90
59505;DHT22;45321;53.200;5.814;2023-06-22T13:08:35;26.20;53.10
59505;DHT22;45321;53.200;5.814;2023-06-22T13:11:01;26.20;52.40
59505;DHT22;45321;53.200;5.814;2023-06-22T13:13:26;26.20;53.00
59505;DHT22;45321;53.200;5.814;2023-06-22T13:15:53;26.10;52.40
59505;DHT22;45321;53.200;5.814;2023-06-22T13:18:19;26.00;53.70
59505;DHT22;45321;53.200;5.814;2023-06-22T13:20:45;26.00;53.50
59505;DHT22;45321;53.200;5.814;2023-06-22T13:23:11;25.90;52.60
59505;DHT22;45321;53.200;5.814;2023-06-22T13:25:37;25.90;53.10
59505;DHT22;45321;53.200;5.814;2023-06-22T13:28:03;25.80;53.10
59505;DHT22;45321;53.200;5.814;2023-06-22T13:30:29;25.80;52.80
59505;DHT22;45321;53.200;5.814;2023-06-22T13:33:05;25.80;52.20
59505;DHT22;45321;53.200;5.814;2023-06-22T13:35:31;25.70;51.40
59505;DHT22;45321;53.200;5.814;2023-06-22T13:37:57;25.70;52.20
59505;DHT22;45321;53.200;5.814;2023-06-22T13:40:23;25.70;52.00
59505;DHT22;45321;53.200;5.814;2023-06-22T13:42:48;25.60;51.40
59505;DHT22;45321;53.200;5.814;2023-06-22T13:45:14;25.60;51.20
59505;DHT22;45321;53.200;5.814;2023-06-22T13:47:42;25.50;51.20
59505;DHT22;45321;53.200;5.814;2023-06-22T13:50:08;25.50;51.80
59505;DHT22;45321;53.200;5.814;2023-06-22T13:52:34;25.50;52.00
59505;DHT22;45321;53.200;5.814;2023-06-22T13:55:00;25.40;51.60
59505;DHT22;45321;53.200;5.814;2023-06-22T13:57:25;25.40;52.70
59505;DHT22;45321;53.200;5.814;2023-06-22T13:59:52;25.30;52.30
59505;DHT22;45321;53.200;5.814;2023-06-22T14:02:21;25.30;52.00
59505;DHT22;45321;53.200;5.814;2023-06-22T14:04:46;25.20;53.30
59505;DHT22;45321;53.200;5.814;2023-06-22T14:07:12;25.20;53.40
59505;DHT22;45321;53.200;5.814;2023-06-22T14:09:38;25.20;53.90
59505;DHT22;45321;53.200;5.814;2023-06-22T14:12:08;25.20;54.00
59505;DHT22;45321;53.200;5.814;2023-06-22T14:14:34;25.10;52.50
59505;DHT22;45321;53.200;5.814;2023-06-22T14:17:00;25.10;52.40
59505;DHT22;45321;53.200;5.814;2023-06-22T14:19:25;25.00;52.50
59505;DHT22;45321;53.200;5.814;2023-06-22T14:21:51;25.00;52.10
59505;DHT22;45321;53.200;5.814;2023-06-22T14:24:17;24.90;52.80
59505;DHT22;45321;53.200;5.814;2023-06-22T14:26:43;24.90;52.80
59505;DHT22;45321;53.200;5.814;2023-06-22T14:29:09;24.80;52.50
59505;DHT22;45321;53.200;5.814;2023-06-22T14:31:34;24.80;53.30
59505;DHT22;45321;53.200;5.814;2023-06-22T14:34:01;24.80;53.30
59505;DHT22;45321;53.200;5.814;2023-06-22T14:36:28;24.70;53.80
59505;DHT22;45321;53.200;5.814;2023-06-22T14:38:54;24.70;53.90
59505;DHT22;45321;53.200;5.814;2023-06-22T14:41:20;24.70;54.20
59505;DHT22;45321;53.200;5.814;2023-06-22T14:43:47;24.70;54.00
59505;DHT22;45321;53.200;5.814;2023-06-22T14:46:15;24.70;54.20
59505;DHT22;45321;53.200;5.814;2023-06-22T14:48:41;24.70;55.00
59505;DHT22;45321;53.200;5.814;2023-06-22T14:51:08;24.60;54.40
59505;DHT22;45321;53.200;5.814;2023-06-22T14:53:34;24.60;53.60
59505;DHT22;45321;53.200;5.814;2023-06-22T14:55:59;24.50;53.80
59505;DHT22;45321;53.200;5.814;2023-06-22T14:58:28;24.50;54.00
59505;DHT22;45321;53.200;5.814;2023-06-22T15:00:55;24.50;54.20
59505;DHT22;45321;53.200;5.814;2023-06-22T15:03:21;24.50;54.80
59505;DHT22;45321;53.200;5.814;2023-06-22T15:05:51;24.50;54.90
59505;DHT22;45321;53.200;5.814;2023-06-22T15:08:16;24.40;54.60
59505;DHT22;45321;53.200;5.814;2023-06-22T15:10:42;24.40;54.20
59505;DHT22;45321;53.200;5.814;2023-06-22T15:13:08;24.40;54.00
59505;DHT22;45321;53.200;5.814;2023-06-22T15:15:33;24.40;55.10
59505;DHT22;45321;53.200;5.814;2023-06-22T15:17:59;24.40;55.10
59505;DHT22;45321;53.200;5.814;2023-06-22T15:20:25;24.40;55.20
59505;DHT22;45321;53.200;5.814;2023-06-22T15:22:50;24.40;54.30
59505;DHT22;45321;53.200;5.814;2023-06-22T15:25:16;24.40;54.50
59505;DHT22;45321;53.200;5.814;2023-06-22T15:27:42;24.40;54.10
59505;DHT22;45321;53.200;5.814;2023-06-22T15:30:08;24.30;54.30
59505;DHT22;45321;53.200;5.814;2023-06-22T15:32:34;24.30;54.10
59505;DHT22;45321;53.200;5.814;2023-06-22T15:34:59;24.20;54.00